createdAt,value
2019-01-16T00:01:12.682Z,100990.38
2019-01-16T00:03:54.496Z,100990.80
2019-01-16T00:06:33.564Z,100990.94
2019-01-16T00:09:19.356Z,100989.87
2019-01-16T00:11:49.371Z,100976.13
2019-01-16T00:14:22.339Z,100986.04
2019-01-16T00:17:01.408Z,100986.97
2019-01-16T00:19:34.094Z,100983.92
2019-01-16T00:22:18.919Z,100975.95
2019-01-16T00:24:57.612Z,100977.67
2019-01-16T00:27:30.312Z,100973.05
2019-01-16T00:30:09.225Z,100966.77
2019-01-16T00:32:45.153Z,100964.56
2019-01-16T00:35:31.108Z,100960.64
2019-01-16T00:38:18.209Z,100964.92
2019-01-16T00:40:48.228Z,100963.59
2019-01-16T00:43:34.137Z,100953.67
2019-01-16T00:46:10.061Z,100961.78
2019-01-16T00:48:40.079Z,100952.56
2019-01-16T00:51:21.934Z,100951.73
2019-01-16T00:54:03.989Z,100954.78
2019-01-16T00:56:45.714Z,100943.76
2019-01-16T00:59:30.555Z,100941.03
2019-01-16T01:02:06.180Z,100945.52
2019-01-16T01:04:48.024Z,100948.92
2019-01-16T01:07:18.284Z,100942.80
2019-01-16T01:09:53.950Z,100941.00
2019-01-16T01:12:32.661Z,100935.15
2019-01-16T01:15:05.372Z,100936.95
2019-01-16T01:17:35.383Z,100940.31
2019-01-16T01:20:22.881Z,100942.11
2019-01-16T01:23:01.624Z,100937.63
2019-01-16T01:25:31.631Z,100933.53
2019-01-16T01:28:04.580Z,100934.82
2019-01-16T01:30:34.591Z,100936.86
2019-01-16T01:33:07.559Z,100934.72
2019-01-16T01:35:37.560Z,100936.16
2019-01-16T01:38:13.035Z,100933.91
2019-01-16T01:40:51.924Z,100936.62
2019-01-16T01:43:37.940Z,100936.43
2019-01-16T01:46:10.897Z,100944.68
2019-01-16T01:48:40.915Z,100942.33
2019-01-16T01:51:16.895Z,100933.30
2019-01-16T01:53:46.906Z,100930.30
2019-01-16T01:56:32.884Z,100936.33
2019-01-16T01:59:08.570Z,100937.58
2019-01-16T02:01:44.235Z,100935.88
2019-01-16T02:04:16.679Z,100939.50
2019-01-16T02:06:46.680Z,100931.41
2019-01-16T02:09:16.696Z,100935.51
2019-01-16T02:11:49.943Z,100927.58
2019-01-16T02:14:22.911Z,100927.77
2019-01-16T02:16:52.925Z,100925.51
2019-01-16T02:19:31.370Z,100919.20
2019-01-16T02:22:13.475Z,100917.86
2019-01-16T02:24:43.494Z,100909.97
2019-01-16T02:27:28.377Z,100920.34
2019-01-16T02:30:14.356Z,100916.98
2019-01-16T02:33:02.503Z,100919.88
2019-01-16T02:35:48.523Z,100915.69
2019-01-16T02:38:21.226Z,100915.87
2019-01-16T02:41:00.098Z,100908.22
2019-01-16T02:43:36.050Z,100916.97
2019-01-16T02:46:22.084Z,100906.20
2019-01-16T02:49:00.895Z,100900.75
2019-01-16T02:51:30.909Z,100901.72
2019-01-16T02:54:03.567Z,100893.98
2019-01-16T02:56:39.287Z,100895.27
2019-01-16T02:59:18.015Z,100893.93
2019-01-16T03:01:50.442Z,100888.03
2019-01-16T03:04:20.443Z,100883.56
2019-01-16T03:06:50.468Z,100879.92
2019-01-16T03:09:29.177Z,100870.75
2019-01-16T03:12:04.996Z,100870.00
2019-01-16T03:14:37.632Z,100869.55
2019-01-16T03:17:13.365Z,100868.21
2019-01-16T03:19:43.610Z,100867.29
2019-01-16T03:22:13.631Z,100859.59
2019-01-16T03:25:01.514Z,100861.11
2019-01-16T03:27:34.480Z,100858.56
2019-01-16T03:30:10.600Z,100854.52
2019-01-16T03:32:40.585Z,100854.98
2019-01-16T03:35:13.243Z,100857.61
2019-01-16T03:37:55.299Z,100853.83
2019-01-16T03:40:25.304Z,100853.36
2019-01-16T03:43:13.138Z,100846.58
2019-01-16T03:45:49.148Z,100841.75
2019-01-16T03:48:30.918Z,100847.83
2019-01-16T03:51:12.764Z,100849.36
2019-01-16T03:53:42.779Z,100842.95
2019-01-16T03:56:13.780Z,100844.56
2019-01-16T03:58:52.679Z,100833.05
2019-01-16T04:01:22.683Z,100822.84
2019-01-16T04:04:07.777Z,100834.00
2019-01-16T04:06:37.792Z,100827.63
2019-01-16T04:09:25.521Z,100828.67
2019-01-16T04:11:55.531Z,100823.68
2019-01-16T04:14:34.247Z,100817.59
2019-01-16T04:17:09.917Z,100815.22
2019-01-16T04:19:39.941Z,100809.35
2019-01-16T04:22:26.207Z,100803.02
2019-01-16T04:24:56.228Z,100799.91
2019-01-16T04:27:26.239Z,100800.78
2019-01-16T04:30:05.382Z,100796.95
2019-01-16T04:32:41.430Z,100798.95
2019-01-16T04:35:17.831Z,100790.08
2019-01-16T04:37:50.584Z,100785.33
2019-01-16T04:40:36.543Z,100786.25
2019-01-16T04:43:06.612Z,100787.91
2019-01-16T04:45:52.894Z,100785.29
2019-01-16T04:48:22.910Z,100778.38
2019-01-16T04:51:10.759Z,100785.29
2019-01-16T04:53:51.107Z,100781.55
2019-01-16T04:56:26.538Z,100780.70
2019-01-16T04:59:08.253Z,100773.22
2019-01-16T05:01:47.025Z,100775.84
2019-01-16T05:04:23.141Z,100769.22
2019-01-16T05:07:02.220Z,100766.31
2019-01-16T05:09:35.306Z,100767.67
2019-01-16T05:12:20.353Z,100770.59
2019-01-16T05:14:52.907Z,100768.44
2019-01-16T05:17:37.384Z,100759.89
2019-01-16T05:20:19.405Z,100759.98
2019-01-16T05:22:55.173Z,100748.20
2019-01-16T05:25:40.011Z,100752.56
2019-01-16T05:28:10.037Z,100749.08
2019-01-16T05:30:40.036Z,100754.31
2019-01-16T05:33:10.046Z,100744.53
2019-01-16T05:35:42.722Z,100741.49
2019-01-16T05:38:12.726Z,100748.32
2019-01-16T05:41:00.300Z,100737.12
2019-01-16T05:43:46.250Z,100747.34
2019-01-16T05:46:18.890Z,100737.27
2019-01-16T05:48:51.870Z,100740.05
2019-01-16T05:51:39.747Z,100739.66
2019-01-16T05:54:25.655Z,100737.12
2019-01-16T05:57:01.428Z,100732.26
2019-01-16T05:59:37.515Z,100732.75
2019-01-16T06:02:23.298Z,100730.92
2019-01-16T06:04:56.027Z,100737.42
2019-01-16T06:07:31.783Z,100738.37
2019-01-16T06:10:01.802Z,100732.91
2019-01-16T06:12:34.463Z,100732.84
2019-01-16T06:15:09.889Z,100728.55
2019-01-16T06:17:39.896Z,100731.16
2019-01-16T06:20:21.201Z,100730.29
2019-01-16T06:23:03.274Z,100731.88
2019-01-16T06:25:38.818Z,100735.08
2019-01-16T06:28:17.621Z,100731.17
2019-01-16T06:30:50.701Z,100731.01
2019-01-16T06:33:29.454Z,100734.55
2019-01-16T06:36:15.209Z,100726.88
2019-01-16T06:39:00.064Z,100729.34
2019-01-16T06:41:38.771Z,100717.31
2019-01-16T06:44:11.605Z,100726.45
2019-01-16T06:46:44.308Z,100722.84
2019-01-16T06:49:17.284Z,100720.34
2019-01-16T06:51:49.998Z,100723.94
2019-01-16T06:54:20.002Z,100724.27
2019-01-16T06:57:04.877Z,100724.06
2019-01-16T06:59:34.894Z,100714.57
2019-01-16T07:02:22.503Z,100713.78
2019-01-16T07:05:01.057Z,100720.34
2019-01-16T07:07:33.798Z,100715.78
2019-01-16T07:10:03.850Z,100707.78
2019-01-16T07:12:36.625Z,100707.20
2019-01-16T07:15:20.656Z,100709.95
2019-01-16T07:17:50.669Z,100724.94
2019-01-16T07:20:20.687Z,100726.36
2019-01-16T07:23:07.014Z,100719.16
2019-01-16T07:25:52.978Z,100711.79
2019-01-16T07:28:25.937Z,100712.24
2019-01-16T07:30:56.051Z,100708.45
2019-01-16T07:33:26.058Z,100702.88
2019-01-16T07:36:06.058Z,100716.11
2019-01-16T07:38:51.585Z,100706.67
2019-01-16T07:44:07.244Z,100705.25
2019-01-16T07:46:55.331Z,100701.27
2019-01-16T07:49:41.714Z,100707.34
2019-01-16T07:52:23.606Z,100707.80
2019-01-16T07:54:53.620Z,100713.78
2019-01-16T07:57:23.638Z,100709.55
2019-01-16T08:00:09.301Z,100705.67
2019-01-16T08:02:45.371Z,100696.31
2019-01-16T08:05:31.340Z,100695.59
2019-01-16T08:08:19.443Z,100699.97
2019-01-16T08:10:52.134Z,100699.72
2019-01-16T08:13:28.057Z,100695.36
2019-01-16T08:15:58.153Z,100693.39
2019-01-16T08:18:40.279Z,100681.10
2019-01-16T08:21:13.231Z,100691.98
2019-01-16T08:23:52.054Z,100694.94
2019-01-16T08:26:22.067Z,100701.39
2019-01-16T08:28:54.571Z,100692.23
2019-01-16T08:31:24.543Z,100690.11
2019-01-16T08:33:57.258Z,100685.45
2019-01-16T08:36:39.079Z,100688.37
2019-01-16T08:39:10.043Z,100695.48
2019-01-16T08:41:46.091Z,100695.23
2019-01-16T08:44:20.089Z,100698.22
2019-01-16T08:47:01.982Z,100707.95
2019-01-16T08:49:35.350Z,100702.09
2019-01-16T08:52:14.551Z,100709.21
2019-01-16T08:55:00.971Z,100705.92
2019-01-16T08:57:33.623Z,100702.14
2019-01-16T09:00:18.442Z,100705.95
2019-01-16T09:02:51.464Z,100697.81
2019-01-16T09:05:37.214Z,100695.73
2019-01-16T09:08:22.070Z,100694.82
2019-01-16T09:10:55.209Z,100690.23
2019-01-16T09:13:36.053Z,100686.33
2019-01-16T09:16:15.976Z,100678.88
2019-01-16T09:19:01.376Z,100669.81
2019-01-16T09:21:40.224Z,100675.17
2019-01-16T09:24:10.267Z,100671.69
2019-01-16T09:26:40.258Z,100671.97
2019-01-16T09:29:19.378Z,100676.97
2019-01-16T09:32:09.203Z,100672.34
2019-01-16T09:34:39.265Z,100676.55
2019-01-16T09:37:24.208Z,100686.69
2019-01-16T09:39:54.225Z,100679.83
2019-01-16T09:42:24.259Z,100688.07
2019-01-16T09:45:11.103Z,100680.75
2019-01-16T09:47:44.880Z,100685.31
2019-01-16T09:50:17.863Z,100677.59
2019-01-16T09:52:53.964Z,100678.76
2019-01-16T09:55:38.835Z,100686.36
2019-01-16T09:58:14.530Z,100673.02
2019-01-16T10:00:56.685Z,100662.57
2019-01-16T10:03:33.520Z,100661.78
2019-01-16T10:06:12.472Z,100660.95
2019-01-16T10:08:42.487Z,100653.00
2019-01-16T10:11:17.931Z,100655.41
2019-01-16T10:13:56.676Z,100652.39
2019-01-16T10:16:35.813Z,100648.38
2019-01-16T10:19:05.979Z,100644.02
2019-01-16T10:21:41.785Z,100633.25
2019-01-16T10:24:28.536Z,100632.57
2019-01-16T10:26:58.545Z,100630.22
2019-01-16T10:29:45.727Z,100625.25
2019-01-16T10:32:21.998Z,100614.88
2019-01-16T10:34:51.995Z,100608.97
2019-01-16T10:37:22.010Z,100603.55
2019-01-16T10:40:00.447Z,100592.52
2019-01-16T10:42:30.543Z,100583.19
2019-01-16T10:45:00.642Z,100579.31
2019-01-16T10:47:46.862Z,100573.44
2019-01-16T10:50:35.174Z,100567.78
2019-01-16T10:53:07.907Z,100566.53
2019-01-16T10:55:40.637Z,100561.68
2019-01-16T10:58:13.423Z,100548.79
2019-01-16T11:00:55.474Z,100548.17
2019-01-16T11:03:34.557Z,100548.03
2019-01-16T11:06:19.585Z,100545.73
2019-01-16T11:08:55.506Z,100541.20
2019-01-16T11:11:31.297Z,100545.91
2019-01-16T11:14:03.975Z,100538.59
2019-01-16T11:16:36.405Z,100536.00
2019-01-16T11:19:12.278Z,100531.38
2019-01-16T11:21:42.303Z,100522.48
2019-01-16T11:24:28.274Z,100524.55
2019-01-16T11:27:04.026Z,100517.16
2019-01-16T11:29:42.733Z,100506.39
2019-01-16T11:32:15.648Z,100507.01
2019-01-16T11:34:48.310Z,100498.02
2019-01-16T11:37:21.054Z,100495.91
2019-01-16T11:39:53.150Z,100486.05
2019-01-16T11:42:32.274Z,100485.14
2019-01-16T11:45:02.303Z,100473.48
2019-01-16T11:47:44.736Z,100470.89
2019-01-16T11:50:31.050Z,100476.63
2019-01-16T11:53:06.519Z,100474.52
2019-01-16T11:55:36.534Z,100457.30
2019-01-16T11:58:06.734Z,100454.36
2019-01-16T12:00:36.828Z,100440.98
2019-01-16T12:03:06.851Z,100439.33
2019-01-16T12:05:48.721Z,100442.41
2019-01-16T12:08:21.704Z,100428.98
2019-01-16T12:11:04.166Z,100436.30
2019-01-16T12:13:34.183Z,100438.38
2019-01-16T12:16:16.016Z,100427.27
2019-01-16T12:19:06.962Z,100422.08
2019-01-16T12:21:45.758Z,100418.66
2019-01-16T12:24:18.582Z,100405.34
2019-01-16T12:27:05.616Z,100395.83
2019-01-16T12:29:35.696Z,100392.41
2019-01-16T12:32:08.515Z,100389.80
2019-01-16T12:34:56.739Z,100366.08
2019-01-16T12:37:32.785Z,100352.91
2019-01-16T12:40:08.732Z,100351.69
2019-01-16T12:42:50.453Z,100356.02
2019-01-16T12:45:32.264Z,100359.42
2019-01-16T12:48:02.295Z,100346.55
2019-01-16T12:50:34.988Z,100345.23
2019-01-16T12:53:16.869Z,100334.95
2019-01-16T12:55:50.088Z,100341.33
2019-01-16T12:58:20.110Z,100337.02
2019-01-16T13:00:52.604Z,100326.26
2019-01-16T13:03:34.639Z,100320.75
2019-01-16T13:06:20.658Z,100315.99
2019-01-16T13:08:56.390Z,100310.30
2019-01-16T13:11:34.271Z,100300.91
2019-01-16T13:14:04.431Z,100282.92
2019-01-16T13:16:34.466Z,100264.50
2019-01-16T13:19:20.786Z,100262.81
2019-01-16T13:21:59.609Z,100252.35
2019-01-16T13:24:35.522Z,100249.88
2019-01-16T13:27:08.559Z,100251.59
2019-01-16T13:29:38.809Z,100254.66
2019-01-16T13:32:08.894Z,100244.41
2019-01-16T13:34:38.914Z,100247.02
2019-01-16T13:37:11.793Z,100243.50
2019-01-16T13:39:47.538Z,100235.80
2019-01-16T13:42:29.398Z,100228.92
2019-01-16T13:45:05.156Z,100234.86
2019-01-16T13:47:51.478Z,100222.32
2019-01-16T13:50:24.272Z,100227.60
2019-01-16T13:53:10.246Z,100225.44
2019-01-16T13:55:52.708Z,100213.43
2019-01-16T13:58:25.751Z,100209.52
2019-01-16T14:00:55.776Z,100203.52
2019-01-16T14:03:25.782Z,100213.44
2019-01-16T14:06:04.665Z,100198.81
2019-01-16T14:08:50.405Z,100188.88
2019-01-16T14:11:39.197Z,100173.36
2019-01-16T14:14:26.033Z,100172.48
2019-01-16T14:17:16.204Z,100167.73
2019-01-16T14:20:02.237Z,100166.90
2019-01-16T14:22:32.255Z,100158.27
2019-01-16T14:25:18.217Z,100147.11
2019-01-16T14:28:03.079Z,100151.41
2019-01-16T14:30:33.175Z,100151.42
2019-01-16T14:33:14.100Z,100145.38
2019-01-16T14:35:44.207Z,100137.62
2019-01-16T14:38:16.727Z,100128.14
2019-01-16T14:40:50.135Z,100126.42
2019-01-16T14:43:21.145Z,100130.67
2019-01-16T14:45:51.236Z,100129.38
2019-01-16T14:48:37.354Z,100125.95
2019-01-16T14:51:11.155Z,100119.95
2019-01-16T14:53:41.187Z,100113.47
2019-01-16T14:56:14.217Z,100108.26
2019-01-16T14:58:44.229Z,100104.87
2019-01-16T15:01:14.235Z,100109.14
2019-01-16T15:03:44.255Z,100109.11
2019-01-16T15:06:14.265Z,100109.17
2019-01-16T15:09:00.101Z,100112.16
2019-01-16T15:11:36.385Z,100104.46
2019-01-16T15:14:23.188Z,100097.96
2019-01-16T15:17:01.711Z,100089.36
2019-01-16T15:19:37.452Z,100090.23
2019-01-16T15:22:14.013Z,100078.59
2019-01-16T15:25:00.331Z,100078.13
2019-01-16T15:27:35.792Z,100078.97
2019-01-16T15:30:14.574Z,100066.91
2019-01-16T15:32:44.656Z,100060.86
2019-01-16T15:35:14.748Z,100059.19
2019-01-16T15:37:47.185Z,100055.73
2019-01-16T15:40:23.326Z,100055.25
2019-01-16T15:42:59.087Z,100048.33
2019-01-16T15:45:31.833Z,100047.13
2019-01-16T15:48:04.612Z,100045.40
2019-01-16T15:50:34.631Z,100055.76
2019-01-16T15:53:10.310Z,100045.41
2019-01-16T15:55:57.599Z,100051.39
2019-01-16T15:58:33.460Z,100038.39
2019-01-16T16:01:06.311Z,100038.84
2019-01-16T16:03:52.481Z,100042.72
2019-01-16T16:06:39.547Z,100034.98
2019-01-16T16:09:18.891Z,100032.02
2019-01-16T16:11:51.868Z,100027.20
2019-01-16T16:14:24.624Z,100034.48
2019-01-16T16:17:10.655Z,100035.34
2019-01-16T16:19:56.647Z,100029.78
2019-01-16T16:22:32.531Z,100015.58
2019-01-16T16:25:08.281Z,100000.03
2019-01-16T16:27:41.073Z,99991.88
2019-01-16T16:30:32.279Z,99992.75
2019-01-16T16:33:02.309Z,99989.34
2019-01-16T16:35:44.358Z,99986.77
2019-01-16T16:38:14.376Z,99990.98
2019-01-16T16:40:50.098Z,99981.52
2019-01-16T16:43:36.723Z,99982.42
2019-01-16T16:46:06.727Z,99976.77
2019-01-16T16:48:41.364Z,99982.31
2019-01-16T16:51:14.256Z,99979.73
2019-01-16T16:54:00.224Z,99971.61
2019-01-16T16:56:31.147Z,99969.84
2019-01-16T16:59:14.448Z,99958.32
2019-01-16T17:02:00.535Z,99958.31
2019-01-16T17:04:46.743Z,99963.47
2019-01-16T17:07:25.423Z,99967.69
2019-01-16T17:09:58.359Z,99949.22
2019-01-16T17:12:43.506Z,99943.65
2019-01-16T17:15:29.938Z,99951.33
2019-01-16T17:18:00.016Z,99947.96
2019-01-16T17:20:42.284Z,99954.80
2019-01-16T17:23:14.955Z,99950.93
2019-01-16T17:25:47.631Z,99947.00
2019-01-16T17:28:23.705Z,99933.70
2019-01-16T17:31:09.843Z,99929.81
2019-01-16T17:33:46.843Z,99933.27
2019-01-16T17:36:16.872Z,99941.38
2019-01-16T17:39:02.897Z,99936.69
2019-01-16T17:41:38.722Z,99936.33
2019-01-16T17:44:08.738Z,99935.08
2019-01-16T17:46:47.470Z,99916.07
2019-01-16T17:49:17.484Z,99914.38
2019-01-16T17:51:55.973Z,99920.48
2019-01-16T17:54:37.691Z,99921.36
2019-01-16T17:57:07.795Z,99923.45
2019-01-16T17:59:53.497Z,99915.31
2019-01-16T18:02:35.665Z,99914.92
2019-01-16T18:05:06.923Z,99913.67
2019-01-16T18:07:37.016Z,99906.70
2019-01-16T18:10:25.061Z,99903.70
2019-01-16T18:13:10.924Z,99910.58
2019-01-16T18:15:43.721Z,99915.28
2019-01-16T18:18:19.815Z,99912.28
2019-01-16T18:20:52.779Z,99905.82
2019-01-16T18:23:28.202Z,99913.96
2019-01-16T18:26:16.306Z,99915.27
2019-01-16T18:28:52.078Z,99915.73
2019-01-16T18:31:22.091Z,99914.83
2019-01-16T18:34:00.928Z,99916.07
2019-01-16T18:36:36.805Z,99913.16
2019-01-16T18:39:16.524Z,99907.06
2019-01-16T18:41:52.020Z,99905.74
2019-01-16T18:44:22.040Z,99920.80
2019-01-16T18:47:07.133Z,99907.91
2019-01-16T18:49:51.835Z,99903.20
2019-01-16T18:52:21.855Z,99900.60
2019-01-16T18:54:54.286Z,99900.60
2019-01-16T18:57:27.246Z,99900.61
2019-01-16T18:59:57.505Z,99898.93
2019-01-16T19:02:39.322Z,99894.63
2019-01-16T19:05:16.176Z,99901.07
2019-01-16T19:08:02.509Z,99907.90
2019-01-16T19:10:42.403Z,99903.64
2019-01-16T19:13:21.244Z,99898.52
2019-01-16T19:15:54.290Z,99891.17
2019-01-16T19:18:26.729Z,99888.16
2019-01-16T19:20:59.942Z,99895.05
2019-01-16T19:23:44.612Z,99904.05
2019-01-16T19:26:14.625Z,99905.38
2019-01-16T19:28:53.423Z,99880.97
2019-01-16T19:31:29.624Z,99898.98
2019-01-16T19:33:59.635Z,99920.44
2019-01-16T19:36:35.111Z,99907.58
2019-01-16T19:39:09.457Z,99912.36
2019-01-16T19:41:44.941Z,99908.50
2019-01-16T19:44:17.692Z,99905.91
2019-01-16T19:46:59.625Z,99910.23
2019-01-16T19:49:32.472Z,99919.28
2019-01-16T19:52:02.485Z,99909.37
2019-01-16T19:54:32.501Z,99907.73
2019-01-16T19:57:02.517Z,99905.16
2019-01-16T19:59:32.769Z,99901.67
2019-01-16T20:02:02.794Z,99908.61
2019-01-16T20:04:32.837Z,99905.55
2019-01-16T20:07:19.010Z,99904.66
2019-01-16T20:09:49.034Z,99914.58
2019-01-16T20:12:23.153Z,99912.02
2019-01-16T20:14:56.140Z,99902.56
2019-01-16T20:17:41.322Z,99906.90
2019-01-16T20:20:28.934Z,99897.89
2019-01-16T20:23:11.123Z,99904.77
2019-01-16T20:26:07.820Z,99905.64
2019-01-16T20:28:53.779Z,99908.23
2019-01-16T20:31:35.773Z,99900.47
2019-01-16T20:34:06.021Z,99882.84
2019-01-16T20:36:52.280Z,99887.16
2019-01-16T20:39:22.284Z,99884.57
2019-01-16T20:41:52.300Z,99888.43
2019-01-16T20:44:25.177Z,99877.66
2019-01-16T20:47:03.830Z,99891.44
2019-01-16T20:49:36.845Z,99898.33
2019-01-16T20:52:09.951Z,99893.55
2019-01-16T20:54:42.359Z,99892.28
2019-01-16T20:57:12.380Z,99893.13
2019-01-16T20:59:58.281Z,99888.84
2019-01-16T21:02:44.190Z,99884.58
2019-01-16T21:05:17.184Z,99897.00
2019-01-16T21:07:53.087Z,99895.71
2019-01-16T21:10:23.099Z,99910.78
2019-01-16T21:13:04.098Z,99918.52
2019-01-16T21:15:40.756Z,99894.86
2019-01-16T21:18:11.764Z,99877.67
2019-01-16T21:20:42.691Z,99879.80
2019-01-16T21:23:25.618Z,99869.47
2019-01-16T21:26:10.396Z,99854.42
2019-01-16T21:28:50.142Z,99863.00
2019-01-16T21:31:37.972Z,99860.39
2019-01-16T21:34:08.346Z,99864.70
2019-01-16T21:36:44.120Z,99848.83
2019-01-16T21:39:22.879Z,99838.08
2019-01-16T21:41:58.674Z,99836.39
2019-01-16T21:44:31.640Z,99832.92
2019-01-16T21:47:04.370Z,99823.05
2019-01-16T21:49:52.233Z,99811.45
2019-01-16T21:52:24.785Z,99810.16
2019-01-16T21:54:58.494Z,99817.90
2019-01-16T21:57:31.408Z,99817.86
2019-01-16T22:00:04.366Z,99817.44
2019-01-16T22:02:50.062Z,99807.57
2019-01-16T22:05:32.306Z,99815.28
2019-01-16T22:08:05.021Z,99810.56
2019-01-16T22:10:35.034Z,99799.85
2019-01-16T22:13:05.271Z,99792.12
2019-01-16T22:15:35.355Z,99796.38
2019-01-16T22:18:05.546Z,99799.37
2019-01-16T22:20:38.002Z,99787.80
2019-01-16T22:23:13.704Z,99796.39
2019-01-16T22:25:46.442Z,99794.25
2019-01-16T22:28:16.445Z,99786.09
2019-01-16T22:30:46.449Z,99785.67
2019-01-16T22:33:22.139Z,99785.23
2019-01-16T22:35:52.161Z,99786.52
2019-01-16T22:38:38.353Z,99777.91
2019-01-16T22:41:23.264Z,99784.37
2019-01-16T22:44:10.927Z,99777.06
2019-01-16T22:46:49.748Z,99768.49
2019-01-16T22:49:31.523Z,99771.50
2019-01-16T22:52:07.258Z,99764.17
2019-01-16T22:54:46.002Z,99756.87
2019-01-16T22:57:16.017Z,99759.45
2019-01-16T23:00:00.896Z,99759.02
2019-01-16T23:02:30.905Z,99755.59
2019-01-16T23:05:03.586Z,99756.44
2019-01-16T23:07:33.598Z,99756.44
2019-01-16T23:10:09.267Z,99755.15
2019-01-16T23:12:48.231Z,99752.58
2019-01-16T23:15:24.195Z,99745.72
2019-01-16T23:18:10.153Z,99735.39
2019-01-16T23:20:51.588Z,99736.24
2019-01-16T23:23:27.265Z,99728.09
2019-01-16T23:26:09.364Z,99721.19
2019-01-16T23:28:55.325Z,99707.88
2019-01-16T23:31:41.251Z,99708.31
2019-01-16T23:34:11.248Z,99704.01
2019-01-16T23:36:47.012Z,99700.58
2019-01-16T23:39:22.722Z,99699.72
2019-01-16T23:42:04.544Z,99704.02
2019-01-16T23:44:40.622Z,99700.98
2019-01-16T23:47:13.146Z,99703.14
2019-01-16T23:49:54.773Z,99701.42
2019-01-16T23:52:24.793Z,99702.27
2019-01-16T23:55:06.678Z,99712.17
2019-01-16T23:57:51.205Z,99719.48
